Time;durP1;ratioP1;P1;durP2;ratioP2;P2;SDS_P1;SDS_P2;PMS_P1;PMS_P2;Temp;Humidity;BMP_temperature;BMP_pressure;BME280_temperature;BME280_humidity;BME280_pressure;Samples;Min_cycle;Max_cycle;Signal;HPM_P1;HPM_P2
2021/01/09 00:00:54;;;;;;;34.20;17.77;;;;;;;-1.14;100.00;98233.78;5015422;28;20037;-87
2021/01/09 00:03:20;;;;;;;34.95;18.25;;;;;;;-1.13;100.00;98235.41;5015299;28;20108;-83
2021/01/09 00:05:45;;;;;;;25.58;14.95;;;;;;;-1.27;100.00;98223.09;5016073;28;20030;-87
2021/01/09 00:08:11;;;;;;;23.63;14.75;;;;;;;-1.47;100.00;98221.56;5015945;28;20034;-81
2021/01/09 00:10:36;;;;;;;31.85;15.07;;;;;;;-1.46;100.00;98207.09;5014081;28;20077;-81
2021/01/09 00:13:02;;;;;;;29.15;15.57;;;;;;;-1.35;100.00;98219.84;5012176;28;20140;-79
2021/01/09 00:15:27;;;;;;;34.28;16.58;;;;;;;-1.35;100.00;98223.34;5012316;28;20482;-85
2021/01/09 00:17:53;;;;;;;26.50;15.50;;;;;;;-1.46;100.00;98229.38;5013527;28;20521;-80
2021/01/09 00:20:19;;;;;;;24.83;15.18;;;;;;;-1.28;100.00;98234.84;5012195;28;20022;-83
2021/01/09 00:22:44;;;;;;;;;;;;;;;-1.44;100.00;98238.00;5012479;28;20038;-82
2021/01/09 00:25:13;;;;;;;29.05;15.55;;;;;;;-1.45;100.00;98241.75;5012308;28;19984;-82
2021/01/09 00:27:39;;;;;;;29.90;14.73;;;;;;;-1.62;100.00;98219.09;5012916;28;20046;-86
2021/01/09 00:30:05;;;;;;;26.67;14.20;;;;;;;-1.55;100.00;98235.19;5013231;28;20030;-81
2021/01/09 00:32:30;;;;;;;21.02;12.85;;;;;;;-1.47;100.00;98241.13;5013085;28;20022;-84
2021/01/09 00:34:56;;;;;;;24.60;14.35;;;;;;;-1.54;100.00;98237.66;5012045;28;20157;-83
2021/01/09 00:37:28;;;;;;;39.28;15.10;;;;;;;-1.60;100.00;98233.16;5011700;28;20124;-83
2021/01/09 00:39:54;;;;;;;28.30;14.98;;;;;;;-1.63;100.00;98244.28;5011555;28;20026;-83
2021/01/09 00:42:19;;;;;;;22.98;13.65;;;;;;;-1.62;100.00;98236.03;5013046;28;20036;-81
2021/01/09 00:44:44;;;;;;;;;;;;;;;-1.72;100.00;98240.16;5012202;28;20068;-82
2021/01/09 00:47:10;;;;;;;31.08;14.77;;;;;;;-1.81;100.00;98236.91;5012825;28;19925;-85
2021/01/09 00:49:35;;;;;;;28.85;14.57;;;;;;;-1.79;100.00;98245.56;5012494;28;20021;-84
2021/01/09 00:52:01;;;;;;;23.23;14.70;;;;;;;-1.74;100.00;98244.91;5012676;28;20084;-82
2021/01/09 00:54:26;;;;;;;;;;;;;;;-1.65;100.00;98251.69;5014884;28;20037;-84
2021/01/09 00:56:53;;;;;;;25.00;13.73;;;;;;;-1.74;100.00;98252.97;5015018;28;19921;-87
2021/01/09 00:59:18;;;;;;;27.98;15.23;;;;;;;-1.78;100.00;98257.09;5014458;28;20032;-83
2021/01/09 01:01:44;;;;;;;28.73;13.65;;;;;;;-1.82;100.00;98247.84;5014780;28;20475;-81
2021/01/09 01:04:09;;;;;;;30.70;17.40;;;;;;;-1.78;100.00;98246.38;5016652;28;20033;-86
2021/01/09 01:06:35;;;;;;;31.77;13.75;;;;;;;-1.81;100.00;98257.50;5016673;28;20034;-83
2021/01/09 01:09:00;;;;;;;28.58;13.93;;;;;;;-2.01;100.00;98252.19;5018673;28;20034;-83
2021/01/09 01:11:30;;;;;;;28.40;14.98;;;;;;;-1.98;100.00;98259.00;5013848;28;20026;-85
2021/01/09 01:13:56;;;;;;;23.05;13.55;;;;;;;-1.92;100.00;98256.31;5014722;28;20037;-84
2021/01/09 01:16:23;;;;;;;27.05;14.45;;;;;;;-1.93;100.00;98251.97;5011235;28;20057;-84
2021/01/09 01:18:48;;;;;;;25.20;14.02;;;;;;;-2.00;100.00;98263.72;4994731;28;20018;-83
2021/01/09 01:21:14;;;;;;;22.98;12.52;;;;;;;-1.91;100.00;98251.78;5010937;28;20364;-83
2021/01/09 01:23:40;;;;;;;23.15;12.55;;;;;;;-2.08;100.00;98227.25;4999030;28;20486;-84
2021/01/09 01:26:08;;;;;;;24.55;13.88;;;;;;;-1.84;100.00;98248.03;4992163;28;20026;-81
2021/01/09 01:28:33;;;;;;;25.00;12.80;;;;;;;-1.78;100.00;98241.00;5011447;28;20030;-86
2021/01/09 01:30:59;;;;;;;22.15;12.23;;;;;;;-1.90;100.00;98248.03;5019797;28;20036;-83
2021/01/09 01:33:24;;;;;;;21.98;12.60;;;;;;;-2.00;100.00;98244.97;5016517;28;20029;-85
2021/01/09 01:35:50;;;;;;;24.05;12.73;;;;;;;-1.95;100.00;98248.69;5017995;28;20029;-87
2021/01/09 01:38:15;;;;;;;24.17;13.07;;;;;;;-1.94;100.00;98249.50;5017517;28;20030;-87
2021/01/09 01:40:41;;;;;;;;;;;;;;;-1.89;100.00;98255.88;5016985;28;20053;-86
2021/01/09 01:43:12;;;;;;;27.52;14.13;;;;;;;-1.92;100.00;98250.13;5016394;28;19962;-83
2021/01/09 01:45:39;;;;;;;23.08;12.30;;;;;;;-2.02;100.00;98260.44;5017342;28;20045;-87
2021/01/09 01:48:09;;;;;;;22.63;12.20;;;;;;;-2.16;100.00;98249.72;5019946;28;20030;-84
2021/01/09 01:50:36;;;;;;;24.92;12.20;;;;;;;-1.89;100.00;98255.88;5017051;28;20022;-85
2021/01/09 01:53:05;;;;;;;22.52;13.32;;;;;;;-1.90;100.00;98253.41;5016133;28;20046;-87
2021/01/09 01:55:31;;;;;;;17.80;11.65;;;;;;;-1.89;100.00;98250.53;5017418;28;20022;-85
2021/01/09 01:57:56;;;;;;;17.38;10.70;;;;;;;-2.07;100.00;98246.84;5016971;28;20033;-87
2021/01/09 02:00:24;;;;;;;13.30;8.75;;;;;;;-2.07;100.00;98252.22;5017876;28;20021;-87
2021/01/09 02:03:03;;;;;;;17.50;8.98;;;;;;;-2.13;100.00;98259.19;5018997;28;20041;-87
2021/01/09 02:05:34;;;;;;;18.98;9.82;;;;;;;-1.90;100.00;98250.72;5017045;28;20030;-86
2021/01/09 02:08:02;;;;;;;14.13;9.00;;;;;;;-2.01;100.00;98246.00;5018787;28;20084;-87
2021/01/09 02:10:28;;;;;;;20.88;9.65;;;;;;;-2.11;100.00;98241.06;5019211;28;20030;-86
2021/01/09 02:13:10;;;;;;;13.02;8.73;;;;;;;-2.21;100.00;98257.56;5017938;28;20036;-85
2021/01/09 02:15:37;;;;;;;16.02;7.97;;;;;;;-2.28;100.00;98251.38;5013536;28;20080;-87
2021/01/09 02:18:04;;;;;;;16.45;7.95;;;;;;;-2.25;100.00;98252.81;4996545;28;20049;-87
2021/01/09 02:20:31;;;;;;;25.10;11.48;;;;;;;-2.38;100.00;98245.59;4997850;28;20023;-86
2021/01/09 02:22:56;;;;;;;19.45;10.50;;;;;;;-2.23;100.00;98262.31;4993442;28;20391;-83
2021/01/09 02:25:22;;;;;;;17.20;9.68;;;;;;;-2.25;100.00;98258.19;4993857;28;20026;-85
2021/01/09 02:27:47;;;;;;;;;;;;;;;-2.24;100.00;98262.50;4996166;28;20026;-85
2021/01/09 02:30:15;;;;;;;18.80;8.60;;;;;;;-2.13;100.00;98269.13;4995510;28;19914;-86
2021/01/09 02:32:57;;;;;;;14.27;10.13;;;;;;;-2.05;100.00;98264.34;4993688;28;20057;-85
2021/01/09 02:35:26;;;;;;;20.83;10.57;;;;;;;-2.29;100.00;98270.34;4994457;28;20026;-87
2021/01/09 02:37:53;;;;;;;19.63;10.00;;;;;;;-2.42;100.00;98263.13;4994963;28;20097;-86
2021/01/09 02:40:19;;;;;;;17.05;9.27;;;;;;;-2.51;100.00;98258.19;5010209;28;20023;-85
2021/01/09 02:42:45;;;;;;;15.18;9.30;;;;;;;-2.53;100.00;98262.91;4996506;28;20022;-85
2021/01/09 02:45:11;;;;;;;13.93;8.60;;;;;;;-2.56;100.00;98264.13;4995742;28;20049;-87
2021/01/09 02:47:36;;;;;;;13.05;6.95;;;;;;;-2.66;100.00;98261.03;4995268;28;20034;-87
2021/01/09 02:50:06;;;;;;;15.70;9.63;;;;;;;-2.60;100.00;98272.81;4995208;28;20030;-89
2021/01/09 02:52:32;;;;;;;18.75;9.10;;;;;;;-2.61;100.00;98263.94;4995684;28;20046;-85
2021/01/09 02:54:57;;;;;;;14.75;8.38;;;;;;;-2.60;100.00;98268.25;4994698;28;20031;-85
2021/01/09 02:57:23;;;;;;;13.10;8.13;;;;;;;-2.68;100.00;98271.13;5009957;28;20492;-88
2021/01/09 02:59:49;;;;;;;12.90;6.65;;;;;;;-2.73;100.00;98262.91;4994712;28;20030;-86
2021/01/09 03:02:14;;;;;;;15.63;8.85;;;;;;;-2.72;100.00;98260.00;4992983;28;20010;-83
2021/01/09 03:04:40;;;;;;;14.65;7.18;;;;;;;-2.72;100.00;98259.16;5008704;28;20041;-85
2021/01/09 03:07:05;;;;;;;11.18;7.10;;;;;;;-2.81;100.00;98271.94;4997419;28;20081;-84
2021/01/09 03:09:30;;;;;;;12.18;6.85;;;;;;;-2.81;100.00;98276.44;4997465;28;20030;-85
2021/01/09 03:11:56;;;;;;;12.52;6.97;;;;;;;-2.94;100.00;98250.50;4996117;28;20038;-84
2021/01/09 03:14:21;;;;;;;14.02;6.07;;;;;;;-2.90;100.00;98269.63;4997615;28;20033;-83
2021/01/09 03:16:47;;;;;;;15.95;7.22;;;;;;;-2.89;100.00;98273.97;5002747;28;20030;-86
2021/01/09 03:19:12;;;;;;;14.55;8.95;;;;;;;-2.83;100.00;98278.50;5014961;28;20034;-84
2021/01/09 03:21:38;;;;;;;14.82;8.45;;;;;;;-2.91;100.00;98254.59;4998545;28;20038;-86
2021/01/09 03:24:03;;;;;;;14.02;8.27;;;;;;;-2.96;100.00;98251.72;4999565;28;20025;-85
2021/01/09 03:26:30;;;;;;;17.20;8.25;;;;;;;-2.88;100.00;98278.31;5016117;28;20100;-87
2021/01/09 03:28:56;;;;;;;15.45;8.15;;;;;;;-2.96;100.00;98268.59;5001944;28;20034;-86
2021/01/09 03:31:21;;;;;;;19.17;9.63;;;;;;;-3.03;100.00;98266.91;4999910;28;20069;-87
2021/01/09 03:33:47;;;;;;;21.00;10.00;;;;;;;-3.03;100.00;98262.41;5006221;28;20125;-85
2021/01/09 03:36:12;;;;;;;23.52;11.38;;;;;;;-3.05;100.00;98266.31;5020427;28;20768;-87
2021/01/09 03:38:38;;;;;;;19.27;11.65;;;;;;;-2.96;100.00;98283.81;5021499;28;20094;-85
2021/01/09 03:41:03;;;;;;;27.85;13.48;;;;;;;-2.97;100.00;98276.81;5005071;28;20030;-84
2021/01/09 03:43:28;;;;;;;21.20;10.70;;;;;;;-2.83;100.00;98278.50;5021977;28;20121;-83
2021/01/09 03:45:54;;;;;;;22.48;12.25;;;;;;;-2.77;100.00;98253.63;5007820;28;20459;-84
2021/01/09 03:48:19;;;;;;;20.42;11.65;;;;;;;-2.67;100.00;98283.50;5007741;28;20582;-83
2021/01/09 03:50:45;;;;;;;22.50;11.38;;;;;;;-2.68;100.00;98287.19;5020087;28;20030;-84
2021/01/09 03:53:10;;;;;;;29.63;11.90;;;;;;;-2.66;100.00;98289.69;5003113;28;20554;-84
2021/01/09 03:55:36;;;;;;;18.63;10.18;;;;;;;-2.58;100.00;98295.66;5002837;28;20035;-85
2021/01/09 03:58:01;;;;;;;25.05;13.05;;;;;;;-2.74;100.00;98288.84;5000755;28;20022;-86
2021/01/09 04:00:26;;;;;;;24.73;12.70;;;;;;;-2.70;100.00;98286.56;5018095;28;20391;-83
2021/01/09 04:02:53;;;;;;;20.83;12.18;;;;;;;-2.85;100.00;98275.22;5002250;28;20031;-86
2021/01/09 04:05:18;;;;;;;24.95;11.93;;;;;;;-2.88;100.00;98291.69;5018558;28;20038;-85
2021/01/09 04:07:44;;;;;;;18.88;12.05;;;;;;;-2.83;100.00;98295.41;5004131;28;20034;-87
2021/01/09 04:10:09;;;;;;;24.55;13.73;;;;;;;-2.67;100.00;98294.19;5003150;28;20029;-84
2021/01/09 04:12:35;;;;;;;21.85;11.43;;;;;;;-2.69;100.00;98284.72;5018819;28;20030;-87
2021/01/09 04:15:00;;;;;;;23.98;11.55;;;;;;;-2.65;100.00;98291.31;5019689;28;20033;-87
2021/01/09 04:17:26;;;;;;;22.60;11.95;;;;;;;-2.80;100.00;98284.28;5022251;28;20045;-87
2021/01/09 04:19:51;;;;;;;25.75;11.35;;;;;;;-2.79;100.00;98296.63;5023117;28;20026;-86
2021/01/09 04:22:17;;;;;;;22.85;10.63;;;;;;;-2.81;100.00;98296.00;5022994;28;20026;-86
2021/01/09 04:24:42;;;;;;;23.15;11.50;;;;;;;-2.80;100.00;98316.41;5021222;28;20032;-87
2021/01/09 04:27:07;;;;;;;18.92;11.45;;;;;;;-2.70;100.00;98316.03;5021184;28;20033;-87
2021/01/09 04:29:33;;;;;;;22.77;12.18;;;;;;;-2.82;100.00;98310.41;5023026;28;20029;-85
2021/01/09 04:31:58;;;;;;;24.48;11.98;;;;;;;-2.91;100.00;98303.59;5025899;28;20018;-88
2021/01/09 04:34:25;;;;;;;20.02;10.73;;;;;;;-2.84;100.00;98314.31;5025682;28;20069;-87
2021/01/09 04:36:52;;;;;;;19.67;10.93;;;;;;;-2.94;100.00;98313.88;5023705;28;20525;-86
2021/01/09 04:39:18;;;;;;;19.65;10.85;;;;;;;-3.01;100.00;98318.41;5022109;28;20026;-83
2021/01/09 04:41:44;;;;;;;19.60;10.60;;;;;;;-2.99;100.00;98314.47;5021617;28;20061;-83
2021/01/09 04:44:11;;;;;;;14.20;8.68;;;;;;;-2.87;100.00;98325.41;5019917;28;20018;-86
2021/01/09 04:46:54;;;;;;;20.15;9.52;;;;;;;-3.04;100.00;98318.78;5021162;28;20061;-85
2021/01/09 04:49:25;;;;;;;18.25;10.30;;;;;;;-3.17;100.00;98318.72;5020580;28;20048;-86
2021/01/09 04:51:52;;;;;;;14.90;9.75;;;;;;;-3.14;100.00;98318.34;5024791;28;20050;-85
2021/01/09 04:54:20;;;;;;;15.48;8.80;;;;;;;-3.16;100.00;98318.53;5012744;28;20034;-86
2021/01/09 04:56:48;;;;;;;19.67;9.00;;;;;;;-2.96;100.00;98326.63;5026153;28;20049;-88
2021/01/09 04:59:15;;;;;;;22.20;10.02;;;;;;;-2.89;100.00;98317.63;5020408;28;20042;-86
2021/01/09 05:01:42;;;;;;;17.42;9.40;;;;;;;-2.94;100.00;98324.56;5017074;28;20397;-87
2021/01/09 05:04:08;;;;;;;19.70;10.65;;;;;;;-3.15;100.00;98338.06;5020087;28;20022;-87
2021/01/09 05:06:34;;;;;;;14.07;8.65;;;;;;;-3.28;100.00;98338.84;5019809;28;20029;-86
2021/01/09 05:09:00;;;;;;;18.05;9.80;;;;;;;-3.31;100.00;98340.06;5019119;28;20018;-85
2021/01/09 05:11:26;;;;;;;16.08;9.57;;;;;;;-3.23;100.00;98331.06;5012309;28;20014;-85
2021/01/09 05:13:51;;;;;;;17.00;8.88;;;;;;;-3.25;100.00;98328.56;5001912;28;20061;-84
2021/01/09 05:16:17;;;;;;;12.77;8.45;;;;;;;-3.30;100.00;98343.56;4998792;28;20125;-86
2021/01/09 05:18:43;;;;;;;15.07;9.05;;;;;;;-3.35;100.00;98337.97;4999957;28;20028;-84
2021/01/09 05:21:12;;;;;;;9.73;7.03;;;;;;;-3.31;100.00;98340.06;4997703;28;20639;-86
2021/01/09 05:23:53;;;;;;;12.27;8.45;;;;;;;-3.33;100.00;98341.28;4996807;28;20014;-87
2021/01/09 05:26:22;;;;;;;16.02;8.20;;;;;;;-3.16;100.00;98355.97;4998886;28;20042;-86
2021/01/09 05:28:49;;;;;;;12.93;8.80;;;;;;;-3.20;100.00;98353.91;4999894;28;20030;-86
2021/01/09 05:31:16;;;;;;;15.55;6.60;;;;;;;-3.28;100.00;98349.53;4999109;28;20042;-84
2021/01/09 05:33:42;;;;;;;15.95;9.02;;;;;;;-3.18;100.00;98349.16;4998853;28;20019;-84
2021/01/09 05:36:08;;;;;;;19.65;9.43;;;;;;;-3.19;100.00;98355.53;5000219;28;20038;-83
2021/01/09 05:38:36;;;;;;;20.83;8.32;;;;;;;-3.11;100.00;98368.75;4999379;28;20025;-84
2021/01/09 05:41:06;;;;;;;16.80;7.88;;;;;;;-3.01;100.00;98345.16;4999626;28;20027;-84
2021/01/09 05:43:31;;;;;;;14.80;8.15;;;;;;;-3.13;100.00;98355.56;5002980;28;20026;-89
2021/01/09 05:45:58;;;;;;;12.52;7.18;;;;;;;-3.16;100.00;98352.50;5001004;28;20483;-85
2021/01/09 05:48:25;;;;;;;12.13;5.38;;;;;;;-3.06;100.00;98342.22;5014832;28;20495;-87
2021/01/09 05:50:52;;;;;;;12.05;6.72;;;;;;;-3.19;99.26;98350.19;5022671;28;20471;-86
2021/01/09 05:53:38;;;;;;;13.98;5.80;;;;;;;-3.31;98.18;98356.09;5025879;28;20060;-86
2021/01/09 05:56:05;;;;;;;13.48;5.75;;;;;;;-3.33;98.47;98363.50;5014912;28;20113;-83
2021/01/09 05:58:31;;;;;;;13.10;6.28;;;;;;;-3.43;99.46;98357.69;5016233;28;20475;-84
2021/01/09 06:01:07;;;;;;;9.20;5.80;;;;;;;-3.23;99.39;98370.34;5016836;28;20118;-85
2021/01/09 06:03:45;;;;;;;13.57;6.80;;;;;;;-3.39;98.26;98372.31;5016467;28;20060;-86
2021/01/09 06:06:16;;;;;;;9.77;5.32;;;;;;;-3.42;96.87;98374.56;5015970;28;20462;-85
2021/01/09 06:08:52;;;;;;;5.70;3.28;;;;;;;-3.59;96.60;98360.66;5016659;28;20034;-86
2021/01/09 06:11:29;;;;;;;6.07;4.35;;;;;;;-3.59;96.30;98379.38;5015052;28;20108;-84
2021/01/09 06:13:58;;;;;;;7.32;4.40;;;;;;;-3.58;95.94;98370.34;5016770;28;20025;-83
2021/01/09 06:16:25;;;;;;;7.20;3.05;;;;;;;-3.64;95.70;98376.47;5015384;28;20018;-84
2021/01/09 06:18:50;;;;;;;7.63;3.28;;;;;;;-3.53;96.36;98373.25;5015865;28;20036;-85
2021/01/09 06:21:18;;;;;;;6.90;3.45;;;;;;;-3.62;95.88;98368.25;5017582;28;20570;-85
2021/01/09 06:23:43;;;;;;;6.50;3.78;;;;;;;-3.71;95.31;98369.41;5017520;28;20021;-84
2021/01/09 06:26:13;;;;;;;6.30;3.70;;;;;;;-3.75;95.54;98368.97;5018512;28;20025;-85
2021/01/09 06:28:45;;;;;;;4.47;2.85;;;;;;;-3.91;95.67;98363.91;5016763;28;20057;-86
2021/01/09 06:31:18;;;;;;;5.13;3.42;;;;;;;-3.77;96.66;98384.38;5015711;28;20030;-85
2021/01/09 06:33:47;;;;;;;8.98;3.88;;;;;;;-3.86;96.22;98380.19;5016664;28;20048;-82
2021/01/09 06:36:14;;;;;;;4.88;3.70;;;;;;;-3.89;97.07;98372.56;5016069;28;20493;-83
2021/01/09 06:38:45;;;;;;;5.97;4.05;;;;;;;-3.71;97.02;98380.09;5015616;28;20018;-85
2021/01/09 06:41:14;;;;;;;8.65;4.65;;;;;;;-3.90;95.89;98376.25;5020540;28;20022;-85
2021/01/09 06:43:43;;;;;;;6.25;3.67;;;;;;;-3.76;96.21;98377.19;5017450;28;20064;-85
2021/01/09 06:46:11;;;;;;;10.00;4.88;;;;;;;-4.01;96.23;98366.13;5017496;28;20026;-85
2021/01/09 06:48:36;;;;;;;7.35;3.90;;;;;;;-3.93;96.29;98381.97;5017476;28;20041;-86
2021/01/09 06:51:02;;;;;;;6.20;3.03;;;;;;;-3.81;96.94;98377.75;5018143;28;20030;-85
2021/01/09 06:53:28;;;;;;;8.30;4.15;;;;;;;-3.92;96.73;98386.31;5019832;28;20046;-85
2021/01/09 06:55:54;;;;;;;8.00;3.47;;;;;;;-4.02;96.55;98383.16;5018790;28;20022;-84
2021/01/09 06:58:25;;;;;;;6.40;3.65;;;;;;;-3.94;96.33;98401.69;5020526;28;20352;-84
2021/01/09 07:00:50;;;;;;;6.18;5.50;;;;;;;-3.96;96.45;98393.06;5020718;28;20029;-86
2021/01/09 07:03:18;;;;;;;15.60;6.75;;;;;;;-3.98;96.32;98377.22;5024404;28;20434;-85
2021/01/09 07:05:48;;;;;;;12.60;4.85;;;;;;;-3.86;96.34;98389.03;5031855;28;20022;-88
2021/01/09 07:08:22;;;;;;;12.57;4.80;;;;;;;-3.58;95.71;98397.06;5022393;28;20034;-85
2021/01/09 07:10:53;;;;;;;6.80;4.35;;;;;;;-3.26;94.14;98404.44;5021828;28;20025;-86
2021/01/09 07:13:20;;;;;;;10.80;6.13;;;;;;;-2.79;93.46;98400.19;5023337;28;20029;-85
2021/01/09 07:15:46;;;;;;;8.40;5.35;;;;;;;-2.64;91.55;98394.69;5024269;28;20056;-87
2021/01/09 07:18:12;;;;;;;11.90;5.22;;;;;;;-2.48;90.44;98402.34;5026907;28;20101;-88
2021/01/09 07:20:39;;;;;;;11.27;6.28;;;;;;;-2.42;89.50;98399.69;5024646;28;20089;-88
2021/01/09 07:23:16;;;;;;;12.18;5.45;;;;;;;-2.03;87.96;98398.09;5027682;28;20033;-85
2021/01/09 07:25:46;;;;;;;12.55;6.75;;;;;;;-1.42;85.39;98402.25;5029423;28;20045;-86
2021/01/09 07:28:17;;;;;;;16.35;6.45;;;;;;;-0.99;83.47;98391.00;5029100;28;20033;-87
2021/01/09 07:30:44;;;;;;;8.20;4.93;;;;;;;-0.20;81.20;98392.31;5029054;28;20053;-87
2021/01/09 07:33:14;;;;;;;8.40;4.80;;;;;;;-0.07;79.50;98394.09;5029584;28;20032;-89
2021/01/09 07:35:45;;;;;;;8.57;4.57;;;;;;;-0.17;79.42;98412.56;5035179;28;20041;-89
2021/01/09 07:38:12;;;;;;;9.55;5.22;;;;;;;-0.01;77.80;98412.88;5028720;28;20085;-91
2021/01/09 07:40:46;;;;;;;8.65;4.97;;;;;;;0.46;76.86;98424.13;5028143;28;20036;-91
2021/01/09 07:43:47;;;;;;;7.95;5.25;;;;;;;-0.23;77.30;98424.16;5023292;28;20040;-88
2021/01/09 07:46:27;;;;;;;10.98;5.63;;;;;;;-0.06;77.00;98436.88;4991957;28;20026;-89
2021/01/09 07:48:56;;;;;;;9.15;5.13;;;;;;;0.53;75.79;98436.47;5011741;28;20053;-89
2021/01/09 07:51:52;;;;;;;11.20;6.88;;;;;;;0.49;75.26;98431.75;5003135;28;20026;-91
2021/01/09 07:54:28;;;;;;;13.93;6.70;;;;;;;0.95;74.99;98434.03;4984200;28;20491;-80
2021/01/09 07:56:54;;;;;;;36.58;18.48;;;;;;;0.70;73.52;98420.59;5005737;28;20030;-87
2021/01/09 07:59:19;;;;;;;9.77;6.68;;;;;;;0.65;73.39;98431.22;5008205;28;20053;-86
2021/01/09 08:01:45;;;;;;;;;;;;;;;1.08;71.79;98440.09;5014916;28;20156;-86
2021/01/09 08:04:12;;;;;;;24.10;10.70;;;;;;;1.07;71.63;98448.41;5015581;28;19964;-81
2021/01/09 08:06:40;;;;;;;10.43;6.90;;;;;;;0.94;72.70;98460.13;5015372;28;20061;-91
2021/01/09 08:09:06;;;;;;;15.55;8.63;;;;;;;0.88;72.34;98446.72;5017248;28;20037;-84
2021/01/09 08:11:39;;;;;;;29.25;16.98;;;;;;;0.84;73.19;98451.75;5018455;28;20009;-88
2021/01/09 08:14:05;;;;;;;10.82;7.82;;;;;;;0.78;72.25;98439.16;5015431;28;20034;-86
2021/01/09 08:16:30;;;;;;;8.30;4.95;;;;;;;0.21;74.54;98453.69;5014540;28;20052;-88
2021/01/09 08:19:15;;;;;;;6.35;4.22;;;;;;;0.14;74.66;98457.44;5016200;28;20021;-85
2021/01/09 08:21:40;;;;;;;6.70;4.70;;;;;;;-0.08;76.57;98449.72;5019927;28;20093;-82
2021/01/09 08:24:06;;;;;;;11.35;5.18;;;;;;;0.34;75.98;98453.59;5039067;28;20102;-82
2021/01/09 08:26:32;;;;;;;12.05;4.68;;;;;;;0.53;74.64;98451.81;5027743;28;20026;-88
2021/01/09 08:28:58;;;;;;;;;;;;;;;0.92;72.98;98461.38;5016178;28;20025;-83
2021/01/09 08:31:25;;;;;;;11.57;4.90;;;;;;;0.28;74.24;98459.81;5013524;28;20275;-85
2021/01/09 08:33:51;;;;;;;6.22;4.80;;;;;;;0.17;75.86;98457.00;5016290;28;20054;-85
2021/01/09 08:36:17;;;;;;;4.53;3.25;;;;;;;-0.56;76.99;98468.13;5015294;28;20061;-86
2021/01/09 08:38:43;;;;;;;6.72;3.03;;;;;;;-0.06;76.81;98450.31;5015092;28;20022;-86
2021/01/09 08:41:08;;;;;;;5.10;2.72;;;;;;;0.95;73.62;98445.63;5011079;28;20104;-79
2021/01/09 08:43:34;;;;;;;5.72;3.10;;;;;;;0.32;74.08;98449.44;5012157;28;20113;-84
2021/01/09 08:45:59;;;;;;;5.65;3.45;;;;;;;-0.13;75.37;98441.50;5010924;28;20113;-81
2021/01/09 08:48:51;;;;;;;5.38;3.33;;;;;;;0.59;74.67;98453.63;5015033;28;20115;-86
2021/01/09 08:51:18;;;;;;;5.10;2.92;;;;;;;1.58;70.63;98443.50;5005646;28;20108;-80
2021/01/09 08:53:54;;;;;;;5.22;3.25;;;;;;;2.51;66.49;98454.63;5013036;28;20026;-87
2021/01/09 08:56:20;;;;;;;6.07;3.50;;;;;;;2.51;66.23;98461.91;5010855;28;20147;-88
2021/01/09 08:58:46;;;;;;;6.78;3.22;;;;;;;2.59;66.78;98458.88;5013009;28;20278;-90
2021/01/09 09:01:14;;;;;;;5.75;3.80;;;;;;;2.13;66.61;98449.59;5010407;28;20010;-87
2021/01/09 09:03:47;;;;;;;5.72;3.17;;;;;;;2.72;66.14;98453.28;5009798;28;20032;-85
2021/01/09 09:06:14;;;;;;;6.07;4.05;;;;;;;1.74;70.57;98452.00;5008604;28;20026;-80
2021/01/09 09:08:41;;;;;;;6.57;4.05;;;;;;;2.47;70.20;98455.34;5011366;28;20064;-86
2021/01/09 09:11:07;;;;;;;6.65;4.20;;;;;;;3.56;66.69;98439.28;5011499;28;20112;-88
2021/01/09 09:13:32;;;;;;;8.48;5.68;;;;;;;3.19;65.60;98446.84;5012627;28;20037;-78
2021/01/09 09:15:58;;;;;;;;;;;;;;;3.60;63.94;98442.31;5012530;28;20029;-83
2021/01/09 09:18:32;;;;;;;6.63;4.53;;;;;;;3.03;66.24;98449.44;5012406;28;19917;-77
2021/01/09 09:20:58;;;;;;;11.15;5.28;;;;;;;3.21;64.30;98446.59;5008866;28;20030;-81
2021/01/09 09:23:25;;;;;;;8.68;5.07;;;;;;;2.95;66.01;98439.78;5004494;28;20033;-83
2021/01/09 09:26:11;;;;;;;7.97;4.72;;;;;;;3.46;63.92;98430.09;5006072;28;20105;-76
2021/01/09 09:28:50;;;;;;;7.65;4.75;;;;;;;3.53;63.01;98428.09;5009751;28;20025;-75
2021/01/09 09:31:38;;;;;;;8.70;5.22;;;;;;;3.15;65.24;98432.16;5009987;28;20064;-75
2021/01/09 09:34:14;;;;;;;8.25;5.57;;;;;;;2.84;65.97;98440.59;5010217;28;20041;-86
2021/01/09 09:36:40;;;;;;;9.45;4.80;;;;;;;3.25;67.25;98442.38;5015007;28;20640;-88
2021/01/09 09:39:11;;;;;;;11.65;4.85;;;;;;;2.12;67.60;98431.78;5011224;28;20069;-86
2021/01/09 09:41:57;;;;;;;10.00;6.00;;;;;;;2.38;68.68;98440.53;5005317;28;20080;-88
2021/01/09 09:44:45;;;;;;;6.75;4.70;;;;;;;2.26;66.81;98431.56;5008690;28;20048;-83
2021/01/09 09:47:26;;;;;;;7.40;5.47;;;;;;;1.98;68.89;98438.41;4986833;28;20026;-78
2021/01/09 09:49:51;;;;;;;8.23;5.13;;;;;;;1.61;70.00;98413.38;5004664;28;20026;-77
2021/01/09 09:52:18;;;;;;;6.65;4.30;;;;;;;1.54;70.80;98418.03;5009999;28;20125;-77
2021/01/09 09:54:45;;;;;;;7.45;3.80;;;;;;;1.70;70.56;98413.06;5010005;28;21051;-76
2021/01/09 09:57:23;;;;;;;8.88;4.97;;;;;;;1.67;70.77;98419.72;4990695;28;20479;-79
2021/01/09 10:00:15;;;;;;;5.78;4.15;;;;;;;2.46;69.70;98437.50;5011357;28;20014;-78
2021/01/09 10:02:56;;;;;;;7.80;4.70;;;;;;;1.77;70.85;98414.63;5011749;28;20478;-79
2021/01/09 10:05:25;;;;;;;7.25;4.70;;;;;;;1.92;70.04;98425.00;5012458;28;20057;-78
2021/01/09 10:08:07;;;;;;;6.90;4.80;;;;;;;2.71;69.59;98430.03;5010980;28;20423;-79
2021/01/09 10:10:36;;;;;;;9.27;4.32;;;;;;;2.30;69.24;98411.16;5007830;28;20068;-79
2021/01/09 10:13:19;;;;;;;6.28;4.68;;;;;;;2.19;70.81;98414.66;5010832;28;20141;-78
2021/01/09 10:15:45;;;;;;;4.18;3.22;;;;;;;1.75;70.11;98395.16;5008671;28;20049;-77
2021/01/09 10:18:11;;;;;;;7.43;3.58;;;;;;;1.94;69.88;98402.13;5010047;28;20045;-82
2021/01/09 10:20:41;;;;;;;6.07;3.42;;;;;;;2.15;67.96;98371.97;5008351;28;20053;-77
2021/01/09 10:23:07;;;;;;;6.15;4.53;;;;;;;2.01;67.34;98396.66;4985581;28;20115;-78
2021/01/09 10:25:38;;;;;;;8.90;5.18;;;;;;;1.65;69.07;98376.00;5001784;28;20030;-79
2021/01/09 10:28:45;;;;;;;8.55;4.55;;;;;;;1.76;70.75;98398.66;4999964;28;20041;-77
2021/01/09 10:31:10;;;;;;;10.35;3.83;;;;;;;1.68;69.69;98391.72;5003277;28;20061;-81
2021/01/09 10:33:56;;;;;;;8.38;5.00;;;;;;;1.87;70.22;98406.00;5010169;28;20494;-80
2021/01/09 10:36:23;;;;;;;7.88;3.78;;;;;;;1.78;69.99;98394.72;5007108;28;20383;-83
2021/01/09 10:42:51;;;;;;;6.07;4.25;;;;;;;1.72;69.29;98414.50;5012626;28;20459;-80
2021/01/09 10:46:06;;;;;;;7.32;4.63;;;;;;;1.80;69.62;98403.38;5007483;28;20050;-77
2021/01/09 10:48:51;;;;;;;11.68;5.22;;;;;;;1.57;71.13;98405.97;5008574;28;20046;-81
2021/01/09 10:51:24;;;;;;;9.25;4.70;;;;;;;1.59;71.91;98409.28;5006881;28;20029;-79
2021/01/09 11:07:14;;;;;;;8.35;3.70;;;;;;;1.53;71.39;98343.63;4953703;28;20066;-80
2021/01/09 11:09:39;;;;;;;5.85;3.78;;;;;;;1.88;70.69;98376.09;4959675;28;20528;-78
2021/01/09 11:12:26;;;;;;;9.63;5.03;;;;;;;2.03;69.52;98373.81;4965517;28;20130;-79
2021/01/09 11:14:52;;;;;;;11.70;5.07;;;;;;;1.67;71.29;98325.38;4974999;28;20030;-81
2021/01/09 11:17:24;;;;;;;6.68;4.65;;;;;;;1.89;71.16;98334.59;4989200;28;20030;-77
2021/01/09 11:20:08;;;;;;;6.93;3.85;;;;;;;2.09;69.30;98356.72;4990011;28;20039;-82
2021/01/09 11:22:34;;;;;;;6.57;3.90;;;;;;;2.00;68.88;98343.78;4988679;28;20037;-79
2021/01/09 11:28:09;;;;;;;6.85;4.60;;;;;;;2.09;67.90;98326.19;4993432;28;20073;-76
2021/01/09 11:31:03;;;;;;;7.05;3.97;;;;;;;2.29;68.80;98307.78;4976649;28;20058;-78
2021/01/09 11:33:29;;;;;;;9.73;5.47;;;;;;;2.07;68.33;98320.19;4973727;28;20031;-80
2021/01/09 11:35:54;;;;;;;8.50;4.78;;;;;;;1.87;68.40;98325.91;4974966;28;20392;-82
2021/01/09 11:38:21;;;;;;;;;;;;;;;2.17;68.22;98325.84;4975513;28;20235;-79
2021/01/09 11:40:47;;;;;;;8.50;3.65;;;;;;;1.97;69.75;98325.38;5007363;28;20000;-85
2021/01/09 11:43:12;;;;;;;7.97;4.03;;;;;;;1.75;70.49;98300.81;5015932;28;20115;-87
2021/01/09 11:45:38;;;;;;;7.93;4.32;;;;;;;2.08;71.75;98295.72;5015425;28;20030;-89
2021/01/09 11:48:05;;;;;;;5.13;3.20;;;;;;;2.17;70.96;98315.06;5014657;28;20026;-78
2021/01/09 11:50:31;;;;;;;5.88;4.15;;;;;;;1.96;70.16;98302.13;5013822;28;20025;-83
2021/01/09 11:52:58;;;;;;;7.60;4.80;;;;;;;1.80;70.99;98303.63;5008819;28;20088;-82
2021/01/09 11:55:24;;;;;;;5.93;4.13;;;;;;;1.72;71.84;98306.66;4992136;28;20026;-80